sensor_id;sensor_type;location;lat;lon;timestamp;P1;durP1;ratioP1;P2;durP2;ratioP2
17449;SDS011;8842;51.244;7.102;2023-09-19T00:00:38;16.97;;;16.07;;
17449;SDS011;8842;51.244;7.102;2023-09-19T00:05:44;16.60;;;15.70;;
17449;SDS011;8842;51.244;7.102;2023-09-19T00:10:48;16.80;;;15.90;;
17449;SDS011;8842;51.244;7.102;2023-09-19T00:15:53;16.90;;;16.00;;
17449;SDS011;8842;51.244;7.102;2023-09-19T00:20:57;16.43;;;15.53;;
17449;SDS011;8842;51.244;7.102;2023-09-19T00:26:01;16.77;;;15.87;;
17449;SDS011;8842;51.244;7.102;2023-09-19T00:31:08;16.73;;;15.83;;
17449;SDS011;8842;51.244;7.102;2023-09-19T00:36:12;16.83;;;15.93;;
17449;SDS011;8842;51.244;7.102;2023-09-19T00:41:16;17.00;;;16.10;;
17449;SDS011;8842;51.244;7.102;2023-09-19T00:46:30;16.97;;;16.07;;
17449;SDS011;8842;51.244;7.102;2023-09-19T00:51:35;17.20;;;16.20;;
17449;SDS011;8842;51.244;7.102;2023-09-19T00:56:47;16.97;;;16.07;;
17449;SDS011;8842;51.244;7.102;2023-09-19T01:01:53;16.57;;;15.67;;
17449;SDS011;8842;51.244;7.102;2023-09-19T01:06:59;16.77;;;15.87;;
17449;SDS011;8842;51.244;7.102;2023-09-19T01:12:13;16.70;;;15.80;;
17449;SDS011;8842;51.244;7.102;2023-09-19T01:17:24;16.63;;;15.73;;
17449;SDS011;8842;51.244;7.102;2023-09-19T01:22:37;16.77;;;15.87;;
17449;SDS011;8842;51.244;7.102;2023-09-19T01:27:57;16.77;;;15.87;;
17449;SDS011;8842;51.244;7.102;2023-09-19T01:33:08;16.60;;;15.70;;
17449;SDS011;8842;51.244;7.102;2023-09-19T01:38:13;16.17;;;15.27;;
17449;SDS011;8842;51.244;7.102;2023-09-19T01:43:20;16.60;;;15.70;;
17449;SDS011;8842;51.244;7.102;2023-09-19T01:48:34;16.53;;;15.63;;
17449;SDS011;8842;51.244;7.102;2023-09-19T01:53:43;16.37;;;15.47;;
17449;SDS011;8842;51.244;7.102;2023-09-19T01:58:58;16.43;;;15.53;;
17449;SDS011;8842;51.244;7.102;2023-09-19T02:04:06;16.23;;;15.33;;
17449;SDS011;8842;51.244;7.102;2023-09-19T02:09:21;16.00;;;15.10;;
17449;SDS011;8842;51.244;7.102;2023-09-19T02:14:25;16.33;;;15.43;;
17449;SDS011;8842;51.244;7.102;2023-09-19T02:19:39;16.43;;;15.53;;
17449;SDS011;8842;51.244;7.102;2023-09-19T02:24:43;16.37;;;15.47;;
17449;SDS011;8842;51.244;7.102;2023-09-19T02:29:55;16.23;;;15.33;;
17449;SDS011;8842;51.244;7.102;2023-09-19T02:40:11;15.93;;;15.03;;
17449;SDS011;8842;51.244;7.102;2023-09-19T02:45:21;16.03;;;15.13;;
17449;SDS011;8842;51.244;7.102;2023-09-19T02:50:33;15.67;;;14.87;;
17449;SDS011;8842;51.244;7.102;2023-09-19T02:55:37;16.10;;;15.20;;
17449;SDS011;8842;51.244;7.102;2023-09-19T03:00:49;16.10;;;15.20;;
17449;SDS011;8842;51.244;7.102;2023-09-19T03:05:54;16.20;;;15.30;;
17449;SDS011;8842;51.244;7.102;2023-09-19T03:10:59;16.07;;;15.17;;
17449;SDS011;8842;51.244;7.102;2023-09-19T03:16:07;15.47;;;14.67;;
17449;SDS011;8842;51.244;7.102;2023-09-19T03:21:12;16.23;;;15.33;;
17449;SDS011;8842;51.244;7.102;2023-09-19T03:26:17;16.10;;;15.20;;
17449;SDS011;8842;51.244;7.102;2023-09-19T03:31:22;16.50;;;15.60;;
17449;SDS011;8842;51.244;7.102;2023-09-19T03:36:35;16.43;;;15.53;;
17449;SDS011;8842;51.244;7.102;2023-09-19T03:41:39;16.57;;;15.67;;
17449;SDS011;8842;51.244;7.102;2023-09-19T03:46:51;16.67;;;15.77;;
17449;SDS011;8842;51.244;7.102;2023-09-19T03:51:55;16.70;;;15.80;;
17449;SDS011;8842;51.244;7.102;2023-09-19T03:57:10;17.07;;;16.10;;
17449;SDS011;8842;51.244;7.102;2023-09-19T04:02:16;16.83;;;15.93;;
17449;SDS011;8842;51.244;7.102;2023-09-19T04:07:24;16.93;;;16.03;;
17449;SDS011;8842;51.244;7.102;2023-09-19T04:12:30;17.00;;;16.07;;
17449;SDS011;8842;51.244;7.102;2023-09-19T04:17:45;17.30;;;16.30;;
17449;SDS011;8842;51.244;7.102;2023-09-19T04:22:49;17.00;;;16.10;;
17449;SDS011;8842;51.244;7.102;2023-09-19T04:28:03;17.00;;;16.10;;
17449;SDS011;8842;51.244;7.102;2023-09-19T04:33:09;17.07;;;16.17;;
17449;SDS011;8842;51.244;7.102;2023-09-19T04:38:17;17.37;;;16.37;;
17449;SDS011;8842;51.244;7.102;2023-09-19T04:43:22;17.23;;;16.23;;
17449;SDS011;8842;51.244;7.102;2023-09-19T04:48:33;17.00;;;16.10;;
17449;SDS011;8842;51.244;7.102;2023-09-19T04:53:38;17.30;;;16.30;;
17449;SDS011;8842;51.244;7.102;2023-09-19T04:58:52;17.03;;;16.10;;
17449;SDS011;8842;51.244;7.102;2023-09-19T05:03:56;17.30;;;16.30;;
17449;SDS011;8842;51.244;7.102;2023-09-19T05:09:08;16.73;;;15.83;;
17449;SDS011;8842;51.244;7.102;2023-09-19T05:14:12;16.60;;;15.70;;
17449;SDS011;8842;51.244;7.102;2023-09-19T05:19:16;17.20;;;16.20;;
17449;SDS011;8842;51.244;7.102;2023-09-19T05:24:20;16.60;;;15.70;;
17449;SDS011;8842;51.244;7.102;2023-09-19T05:29:32;16.80;;;15.80;;
17449;SDS011;8842;51.244;7.102;2023-09-19T05:34:36;16.30;;;15.40;;
17449;SDS011;8842;51.244;7.102;2023-09-19T05:39:48;17.07;;;16.13;;
17449;SDS011;8842;51.244;7.102;2023-09-19T05:44:52;17.30;;;16.30;;
17449;SDS011;8842;51.244;7.102;2023-09-19T05:50:05;17.33;;;16.07;;
17449;SDS011;8842;51.244;7.102;2023-09-19T05:55:11;17.00;;;16.10;;
17449;SDS011;8842;51.244;7.102;2023-09-19T06:00:15;17.00;;;16.10;;
17449;SDS011;8842;51.244;7.102;2023-09-19T06:05:20;15.60;;;14.80;;
17449;SDS011;8842;51.244;7.102;2023-09-19T06:10:35;16.10;;;15.20;;
17449;SDS011;8842;51.244;7.102;2023-09-19T06:15:39;15.67;;;14.87;;
17449;SDS011;8842;51.244;7.102;2023-09-19T06:20:43;15.90;;;15.10;;
17449;SDS011;8842;51.244;7.102;2023-09-19T06:25:47;15.53;;;14.73;;
17449;SDS011;8842;51.244;7.102;2023-09-19T06:31:01;15.03;;;14.23;;
17449;SDS011;8842;51.244;7.102;2023-09-19T06:36:06;14.27;;;13.53;;
17449;SDS011;8842;51.244;7.102;2023-09-19T06:41:18;13.90;;;13.20;;
17449;SDS011;8842;51.244;7.102;2023-09-19T06:46:24;13.40;;;12.70;;
17449;SDS011;8842;51.244;7.102;2023-09-19T06:51:38;12.90;;;12.20;;
17449;SDS011;8842;51.244;7.102;2023-09-19T06:56:44;12.00;;;11.40;;
17449;SDS011;8842;51.244;7.102;2023-09-19T07:01:56;11.50;;;10.90;;
17449;SDS011;8842;51.244;7.102;2023-09-19T07:07:02;11.10;;;10.50;;
17449;SDS011;8842;51.244;7.102;2023-09-19T07:12:14;10.20;;;9.70;;
17449;SDS011;8842;51.244;7.102;2023-09-19T07:17:18;11.20;;;10.60;;
17449;SDS011;8842;51.244;7.102;2023-09-19T07:22:30;10.40;;;9.90;;
17449;SDS011;8842;51.244;7.102;2023-09-19T07:27:34;10.23;;;9.73;;
17449;SDS011;8842;51.244;7.102;2023-09-19T07:32:46;10.27;;;9.77;;
17449;SDS011;8842;51.244;7.102;2023-09-19T07:37:50;10.37;;;9.87;;
17449;SDS011;8842;51.244;7.102;2023-09-19T07:42:54;10.90;;;10.30;;
17449;SDS011;8842;51.244;7.102;2023-09-19T07:48:06;10.00;;;9.50;;
17449;SDS011;8842;51.244;7.102;2023-09-19T07:58:24;9.60;;;9.10;;
17449;SDS011;8842;51.244;7.102;2023-09-19T08:03:28;9.60;;;9.10;;
17449;SDS011;8842;51.244;7.102;2023-09-19T08:08:32;9.47;;;8.97;;
17449;SDS011;8842;51.244;7.102;2023-09-19T08:13:37;9.30;;;8.80;;
17449;SDS011;8842;51.244;7.102;2023-09-19T08:18:47;9.50;;;9.00;;
17449;SDS011;8842;51.244;7.102;2023-09-19T08:23:51;8.93;;;8.53;;
17449;SDS011;8842;51.244;7.102;2023-09-19T08:28:56;10.83;;;9.93;;
17449;SDS011;8842;51.244;7.102;2023-09-19T08:34:00;9.90;;;9.40;;
17449;SDS011;8842;51.244;7.102;2023-09-19T08:39:04;9.40;;;8.90;;
17449;SDS011;8842;51.244;7.102;2023-09-19T08:44:08;9.70;;;9.20;;
17449;SDS011;8842;51.244;7.102;2023-09-19T08:49:16;9.90;;;9.40;;
17449;SDS011;8842;51.244;7.102;2023-09-19T08:54:28;10.53;;;9.93;;
17449;SDS011;8842;51.244;7.102;2023-09-19T08:59:36;10.40;;;9.90;;
17449;SDS011;8842;51.244;7.102;2023-09-19T09:04:48;10.13;;;9.63;;
17449;SDS011;8842;51.244;7.102;2023-09-19T09:09:53;10.30;;;9.70;;
17449;SDS011;8842;51.244;7.102;2023-09-19T09:14:58;10.40;;;9.90;;
17449;SDS011;8842;51.244;7.102;2023-09-19T09:20:10;10.50;;;10.00;;
17449;SDS011;8842;51.244;7.102;2023-09-19T09:25:16;10.60;;;10.10;;
17449;SDS011;8842;51.244;7.102;2023-09-19T09:30:33;10.50;;;10.00;;
17449;SDS011;8842;51.244;7.102;2023-09-19T09:35:47;10.33;;;9.83;;
17449;SDS011;8842;51.244;7.102;2023-09-19T09:40:55;10.50;;;9.80;;
17449;SDS011;8842;51.244;7.102;2023-09-19T09:46:11;10.40;;;9.90;;
17449;SDS011;8842;51.244;7.102;2023-09-19T09:58:16;10.70;;;10.10;;
17449;SDS011;8842;51.244;7.102;2023-09-19T10:03:34;10.13;;;9.63;;
17449;SDS011;8842;51.244;7.102;2023-09-19T10:08:45;10.00;;;9.50;;
17449;SDS011;8842;51.244;7.102;2023-09-19T10:14:04;10.30;;;9.80;;
17449;SDS011;8842;51.244;7.102;2023-09-19T10:24:25;10.30;;;9.70;;
17449;SDS011;8842;51.244;7.102;2023-09-19T10:29:31;9.87;;;9.37;;
17449;SDS011;8842;51.244;7.102;2023-09-19T10:34:43;10.27;;;9.67;;
17449;SDS011;8842;51.244;7.102;2023-09-19T10:39:49;10.33;;;9.83;;
17449;SDS011;8842;51.244;7.102;2023-09-19T10:44:55;10.90;;;10.30;;
17449;SDS011;8842;51.244;7.102;2023-09-19T10:55:15;9.10;;;8.60;;
17449;SDS011;8842;51.244;7.102;2023-09-19T11:00:21;10.20;;;9.70;;
17449;SDS011;8842;51.244;7.102;2023-09-19T11:05:26;10.93;;;10.33;;
17449;SDS011;8842;51.244;7.102;2023-09-19T11:10:47;10.67;;;10.07;;
17449;SDS011;8842;51.244;7.102;2023-09-19T11:21:42;12.33;;;11.53;;
17449;SDS011;8842;51.244;7.102;2023-09-19T11:27:11;11.00;;;10.40;;
17449;SDS011;8842;51.244;7.102;2023-09-19T11:32:16;10.80;;;10.20;;
17449;SDS011;8842;51.244;7.102;2023-09-19T11:43:29;11.80;;;11.20;;
17449;SDS011;8842;51.244;7.102;2023-09-19T11:48:38;10.90;;;10.30;;
17449;SDS011;8842;51.244;7.102;2023-09-19T11:53:51;11.43;;;10.83;;
17449;SDS011;8842;51.244;7.102;2023-09-19T11:58:56;11.10;;;10.50;;
17449;SDS011;8842;51.244;7.102;2023-09-19T12:04:02;10.63;;;10.03;;
17449;SDS011;8842;51.244;7.102;2023-09-19T12:09:08;10.60;;;10.10;;
17449;SDS011;8842;51.244;7.102;2023-09-19T12:14:24;11.00;;;10.40;;
17449;SDS011;8842;51.244;7.102;2023-09-19T12:19:36;11.20;;;10.60;;
17449;SDS011;8842;51.244;7.102;2023-09-19T12:24:41;11.27;;;10.67;;
17449;SDS011;8842;51.244;7.102;2023-09-19T12:29:52;12.03;;;11.33;;
17449;SDS011;8842;51.244;7.102;2023-09-19T12:35:05;11.53;;;10.90;;
17449;SDS011;8842;51.244;7.102;2023-09-19T12:40:13;10.90;;;10.30;;
17449;SDS011;8842;51.244;7.102;2023-09-19T12:45:19;10.47;;;9.87;;
17449;SDS011;8842;51.244;7.102;2023-09-19T12:50:24;10.90;;;10.30;;
17449;SDS011;8842;51.244;7.102;2023-09-19T12:55:36;10.90;;;10.30;;
17449;SDS011;8842;51.244;7.102;2023-09-19T13:00:41;11.60;;;11.00;;
17449;SDS011;8842;51.244;7.102;2023-09-19T13:05:53;11.23;;;10.63;;
17449;SDS011;8842;51.244;7.102;2023-09-19T13:11:02;11.30;;;10.70;;
17449;SDS011;8842;51.244;7.102;2023-09-19T13:16:12;11.63;;;10.97;;
17449;SDS011;8842;51.244;7.102;2023-09-19T13:21:31;11.38;;;10.78;;
17449;SDS011;8842;51.244;7.102;2023-09-19T13:26:39;9.93;;;9.43;;
17449;SDS011;8842;51.244;7.102;2023-09-19T13:31:43;11.30;;;10.70;;
17449;SDS011;8842;51.244;7.102;2023-09-19T13:36:57;11.20;;;10.60;;
17449;SDS011;8842;51.244;7.102;2023-09-19T13:42:02;10.93;;;10.32;;
17449;SDS011;8842;51.244;7.102;2023-09-19T13:47:07;10.70;;;10.10;;
17449;SDS011;8842;51.244;7.102;2023-09-19T13:52:19;11.40;;;10.80;;
17449;SDS011;8842;51.244;7.102;2023-09-19T13:57:24;11.87;;;11.17;;
17449;SDS011;8842;51.244;7.102;2023-09-19T14:02:29;12.53;;;11.73;;
17449;SDS011;8842;51.244;7.102;2023-09-19T14:07:34;11.83;;;11.23;;
17449;SDS011;8842;51.244;7.102;2023-09-19T14:12:46;11.97;;;11.27;;
17449;SDS011;8842;51.244;7.102;2023-09-19T14:17:50;12.13;;;11.53;;
17449;SDS011;8842;51.244;7.102;2023-09-19T14:23:02;11.10;;;10.50;;
17449;SDS011;8842;51.244;7.102;2023-09-19T14:28:07;11.77;;;11.17;;
17449;SDS011;8842;51.244;7.102;2023-09-19T14:33:11;11.65;;;11.05;;
17449;SDS011;8842;51.244;7.102;2023-09-19T14:38:17;11.93;;;11.33;;
17449;SDS011;8842;51.244;7.102;2023-09-19T14:43:22;11.90;;;11.30;;
17449;SDS011;8842;51.244;7.102;2023-09-19T14:48:33;11.30;;;10.70;;
17449;SDS011;8842;51.244;7.102;2023-09-19T14:53:37;11.10;;;10.50;;
17449;SDS011;8842;51.244;7.102;2023-09-19T14:58:52;11.60;;;11.00;;
17449;SDS011;8842;51.244;7.102;2023-09-19T15:03:56;11.43;;;10.83;;
17449;SDS011;8842;51.244;7.102;2023-09-19T15:09:08;11.40;;;10.80;;
17449;SDS011;8842;51.244;7.102;2023-09-19T15:14:12;12.10;;;11.50;;
17449;SDS011;8842;51.244;7.102;2023-09-19T15:19:16;11.97;;;11.37;;
17449;SDS011;8842;51.244;7.102;2023-09-19T15:24:20;11.77;;;11.17;;
17449;SDS011;8842;51.244;7.102;2023-09-19T15:29:25;12.13;;;11.53;;
17449;SDS011;8842;51.244;7.102;2023-09-19T15:34:37;12.10;;;11.50;;
17449;SDS011;8842;51.244;7.102;2023-09-19T15:39:41;11.90;;;11.30;;
17449;SDS011;8842;51.244;7.102;2023-09-19T15:44:53;12.03;;;11.43;;
17449;SDS011;8842;51.244;7.102;2023-09-19T15:49:58;12.00;;;11.40;;
17449;SDS011;8842;51.244;7.102;2023-09-19T15:55:10;12.00;;;11.40;;
17449;SDS011;8842;51.244;7.102;2023-09-19T16:00:15;11.90;;;11.30;;
17449;SDS011;8842;51.244;7.102;2023-09-19T16:05:22;11.90;;;11.30;;
17449;SDS011;8842;51.244;7.102;2023-09-19T16:10:36;12.27;;;11.67;;
17449;SDS011;8842;51.244;7.102;2023-09-19T16:15:42;11.63;;;11.03;;
17449;SDS011;8842;51.244;7.102;2023-09-19T16:20:47;12.33;;;11.73;;
17449;SDS011;8842;51.244;7.102;2023-09-19T16:26:02;12.27;;;11.67;;
17449;SDS011;8842;51.244;7.102;2023-09-19T16:31:08;11.70;;;11.10;;
17449;SDS011;8842;51.244;7.102;2023-09-19T16:36:19;11.70;;;11.10;;
17449;SDS011;8842;51.244;7.102;2023-09-19T16:41:24;11.60;;;11.00;;
17449;SDS011;8842;51.244;7.102;2023-09-19T16:46:36;10.20;;;9.70;;
17449;SDS011;8842;51.244;7.102;2023-09-19T16:51:40;11.00;;;10.40;;
17449;SDS011;8842;51.244;7.102;2023-09-19T16:56:52;10.73;;;10.20;;
17449;SDS011;8842;51.244;7.102;2023-09-19T17:01:56;11.27;;;10.67;;
17449;SDS011;8842;51.244;7.102;2023-09-19T17:07:02;10.60;;;10.10;;
17449;SDS011;8842;51.244;7.102;2023-09-19T17:12:14;10.67;;;10.17;;
17449;SDS011;8842;51.244;7.102;2023-09-19T17:17:19;11.67;;;10.93;;
17449;SDS011;8842;51.244;7.102;2023-09-19T17:22:30;11.30;;;10.70;;
17449;SDS011;8842;51.244;7.102;2023-09-19T17:27:35;11.23;;;10.60;;
17449;SDS011;8842;51.244;7.102;2023-09-19T17:32:39;11.23;;;10.63;;
17449;SDS011;8842;51.244;7.102;2023-09-19T17:37:44;10.50;;;10.00;;
17449;SDS011;8842;51.244;7.102;2023-09-19T17:42:55;10.40;;;9.90;;
17449;SDS011;8842;51.244;7.102;2023-09-19T17:48:00;10.90;;;10.30;;
17449;SDS011;8842;51.244;7.102;2023-09-19T17:53:14;11.03;;;10.43;;
17449;SDS011;8842;51.244;7.102;2023-09-19T17:58:19;10.87;;;10.27;;
17449;SDS011;8842;51.244;7.102;2023-09-19T18:03:23;10.93;;;10.33;;
17449;SDS011;8842;51.244;7.102;2023-09-19T18:08:28;10.90;;;10.30;;
17449;SDS011;8842;51.244;7.102;2023-09-19T18:13:32;11.30;;;10.70;;
17449;SDS011;8842;51.244;7.102;2023-09-19T18:18:44;10.60;;;10.10;;
17449;SDS011;8842;51.244;7.102;2023-09-19T18:23:52;10.73;;;10.17;;
17449;SDS011;8842;51.244;7.102;2023-09-19T18:28:56;10.73;;;10.17;;
17449;SDS011;8842;51.244;7.102;2023-09-19T18:34:00;10.97;;;10.37;;
17449;SDS011;8842;51.244;7.102;2023-09-19T18:39:12;11.07;;;10.47;;
17449;SDS011;8842;51.244;7.102;2023-09-19T18:44:19;11.60;;;11.00;;
17449;SDS011;8842;51.244;7.102;2023-09-19T18:49:23;11.93;;;11.33;;
17449;SDS011;8842;51.244;7.102;2023-09-19T18:54:34;12.00;;;11.40;;
17449;SDS011;8842;51.244;7.102;2023-09-19T18:59:41;11.80;;;11.20;;
17449;SDS011;8842;51.244;7.102;2023-09-19T19:04:52;11.20;;;10.60;;
17449;SDS011;8842;51.244;7.102;2023-09-19T19:09:57;11.67;;;11.07;;
17449;SDS011;8842;51.244;7.102;2023-09-19T19:15:01;11.50;;;10.90;;
17449;SDS011;8842;51.244;7.102;2023-09-19T19:20:07;11.30;;;10.70;;
17449;SDS011;8842;51.244;7.102;2023-09-19T19:25:13;11.60;;;11.00;;
17449;SDS011;8842;51.244;7.102;2023-09-19T19:41:48;11.80;;;11.20;;
17449;SDS011;8842;51.244;7.102;2023-09-19T19:46:53;12.20;;;11.60;;
17449;SDS011;8842;51.244;7.102;2023-09-19T19:52:06;12.03;;;11.43;;
17449;SDS011;8842;51.244;7.102;2023-09-19T19:57:10;12.47;;;11.80;;
17449;SDS011;8842;51.244;7.102;2023-09-19T20:02:22;11.90;;;11.30;;
17449;SDS011;8842;51.244;7.102;2023-09-19T20:07:26;11.90;;;11.30;;
17449;SDS011;8842;51.244;7.102;2023-09-19T20:12:38;12.30;;;11.60;;
17449;SDS011;8842;51.244;7.102;2023-09-19T20:17:42;12.07;;;11.47;;
17449;SDS011;8842;51.244;7.102;2023-09-19T20:22:54;11.60;;;11.00;;
17449;SDS011;8842;51.244;7.102;2023-09-19T20:27:58;11.47;;;10.87;;
17449;SDS011;8842;51.244;7.102;2023-09-19T20:33:10;11.90;;;11.30;;
17449;SDS011;8842;51.244;7.102;2023-09-19T20:38:15;12.00;;;11.40;;
17449;SDS011;8842;51.244;7.102;2023-09-19T20:43:19;11.70;;;11.10;;
17449;SDS011;8842;51.244;7.102;2023-09-19T20:48:31;11.87;;;11.27;;
17449;SDS011;8842;51.244;7.102;2023-09-19T20:53:36;12.10;;;11.50;;
17449;SDS011;8842;51.244;7.102;2023-09-19T20:58:41;12.27;;;11.67;;
17449;SDS011;8842;51.244;7.102;2023-09-19T21:03:53;11.90;;;11.30;;
17449;SDS011;8842;51.244;7.102;2023-09-19T21:08:58;12.60;;;11.90;;
17449;SDS011;8842;51.244;7.102;2023-09-19T21:14:03;12.30;;;11.70;;
17449;SDS011;8842;51.244;7.102;2023-09-19T21:19:15;12.27;;;11.67;;
17449;SDS011;8842;51.244;7.102;2023-09-19T21:24:19;12.27;;;11.67;;
17449;SDS011;8842;51.244;7.102;2023-09-19T21:29:31;12.80;;;12.10;;
17449;SDS011;8842;51.244;7.102;2023-09-19T21:34:35;11.80;;;11.20;;
17449;SDS011;8842;51.244;7.102;2023-09-19T21:39:49;12.13;;;11.53;;
17449;SDS011;8842;51.244;7.102;2023-09-19T21:44:53;12.23;;;11.63;;
17449;SDS011;8842;51.244;7.102;2023-09-19T21:50:11;12.80;;;12.10;;
17449;SDS011;8842;51.244;7.102;2023-09-19T21:55:16;12.20;;;11.60;;
17449;SDS011;8842;51.244;7.102;2023-09-19T22:00:28;12.20;;;11.60;;
17449;SDS011;8842;51.244;7.102;2023-09-19T22:05:38;12.07;;;11.47;;
17449;SDS011;8842;51.244;7.102;2023-09-19T22:10:52;12.00;;;11.40;;
17449;SDS011;8842;51.244;7.102;2023-09-19T22:15:56;12.13;;;11.47;;
17449;SDS011;8842;51.244;7.102;2023-09-19T22:21:08;12.27;;;11.67;;
17449;SDS011;8842;51.244;7.102;2023-09-19T22:26:15;12.30;;;11.70;;
17449;SDS011;8842;51.244;7.102;2023-09-19T22:31:29;12.33;;;11.70;;
17449;SDS011;8842;51.244;7.102;2023-09-19T22:36:36;12.50;;;11.80;;
17449;SDS011;8842;51.244;7.102;2023-09-19T22:41:43;12.10;;;11.50;;
17449;SDS011;8842;51.244;7.102;2023-09-19T22:46:57;11.93;;;11.33;;
17449;SDS011;8842;51.244;7.102;2023-09-19T22:52:01;12.20;;;11.60;;
17449;SDS011;8842;51.244;7.102;2023-09-19T22:57:07;12.43;;;11.70;;
17449;SDS011;8842;51.244;7.102;2023-09-19T23:02:25;12.20;;;11.60;;
17449;SDS011;8842;51.244;7.102;2023-09-19T23:07:31;12.07;;;11.47;;
17449;SDS011;8842;51.244;7.102;2023-09-19T23:12:35;12.20;;;11.50;;
17449;SDS011;8842;51.244;7.102;2023-09-19T23:17:40;12.30;;;11.60;;
17449;SDS011;8842;51.244;7.102;2023-09-19T23:22:45;12.60;;;11.70;;
17449;SDS011;8842;51.244;7.102;2023-09-19T23:27:51;11.90;;;11.30;;
17449;SDS011;8842;51.244;7.102;2023-09-19T23:32:57;12.23;;;11.63;;
17449;SDS011;8842;51.244;7.102;2023-09-19T23:38:09;12.40;;;11.70;;
17449;SDS011;8842;51.244;7.102;2023-09-19T23:43:14;12.67;;;11.97;;
17449;SDS011;8842;51.244;7.102;2023-09-19T23:48:20;12.50;;;11.80;;
17449;SDS011;8842;51.244;7.102;2023-09-19T23:53:26;12.47;;;11.77;;
17449;SDS011;8842;51.244;7.102;2023-09-19T23:58:40;12.27;;;11.67;;
